createdAt,value
2023-01-07T00:01:07.746Z,17.60
2023-01-07T00:03:35.943Z,17.60
2023-01-07T00:06:05.626Z,14.60
2023-01-07T00:08:34.516Z,12.90
2023-01-07T00:11:03.414Z,15.20
2023-01-07T00:13:31.587Z,15.70
2023-01-07T00:16:07.318Z,13.40
2023-01-07T00:18:35.781Z,15.40
2023-01-07T00:21:05.245Z,15.40
2023-01-07T00:23:34.817Z,13.10
2023-01-07T00:26:06.686Z,12.10
2023-01-07T00:28:35.470Z,12.80
2023-01-07T00:31:05.430Z,11.60
2023-01-07T00:33:35.602Z,10.90
2023-01-07T00:36:09.012Z,11.30
2023-01-07T00:38:37.276Z,10.10
2023-01-07T00:41:05.395Z,9.10
2023-01-07T00:43:33.139Z,8.90
2023-01-07T00:46:01.112Z,9.70
2023-01-07T00:48:29.356Z,11.60
2023-01-07T00:50:57.306Z,9.60
2023-01-07T00:53:25.804Z,10.50
2023-01-07T00:55:54.275Z,10.10
2023-01-07T00:58:23.575Z,13.20
2023-01-07T01:00:55.119Z,9.70
2023-01-07T01:03:23.916Z,10.30
2023-01-07T01:05:51.934Z,13.60
2023-01-07T01:08:21.322Z,11.90
2023-01-07T01:10:49.080Z,13.00
2023-01-07T01:13:18.420Z,10.70
2023-01-07T01:15:47.900Z,13.90
2023-01-07T01:18:24.459Z,14.30
2023-01-07T01:20:52.336Z,13.20
2023-01-07T01:23:20.181Z,13.40
2023-01-07T01:25:48.190Z,13.80
2023-01-07T01:28:15.882Z,13.70
2023-01-07T01:30:43.628Z,16.40
2023-01-07T01:33:11.585Z,13.10
2023-01-07T01:35:40.151Z,14.80
2023-01-07T01:38:08.871Z,13.60
2023-01-07T01:40:37.059Z,12.60
2023-01-07T01:43:04.822Z,12.40
2023-01-07T01:45:32.699Z,12.60
2023-01-07T01:48:04.939Z,12.70
2023-01-07T01:50:42.347Z,12.30
2023-01-07T01:53:12.693Z,13.60
2023-01-07T01:55:42.903Z,11.60
2023-01-07T01:58:12.599Z,13.60
2023-01-07T02:00:41.487Z,11.40
2023-01-07T02:03:11.678Z,12.70
2023-01-07T02:05:40.586Z,10.70
2023-01-07T02:08:09.286Z,12.50
2023-01-07T02:10:37.631Z,13.20
2023-01-07T02:13:21.005Z,11.50
2023-01-07T02:16:11.615Z,12.80
2023-01-07T02:18:39.441Z,9.30
2023-01-07T02:21:14.387Z,8.70
2023-01-07T02:23:42.358Z,10.10
2023-01-07T02:26:28.367Z,11.00
2023-01-07T02:28:59.691Z,12.00
2023-01-07T02:31:30.443Z,10.20
2023-01-07T02:34:04.450Z,10.80
2023-01-07T02:36:39.579Z,9.10
2023-01-07T02:39:12.647Z,8.80
2023-01-07T02:41:46.669Z,8.50
2023-01-07T02:44:21.692Z,10.40
2023-01-07T02:46:53.231Z,9.30
2023-01-07T02:49:21.084Z,8.80
2023-01-07T02:51:48.986Z,8.50
2023-01-07T02:54:18.908Z,8.70
2023-01-07T02:57:05.711Z,9.60
2023-01-07T02:59:53.972Z,10.70
2023-01-07T03:02:27.966Z,9.10
2023-01-07T03:05:21.972Z,8.60
2023-01-07T03:08:08.960Z,8.90
2023-01-07T03:10:46.640Z,8.90
2023-01-07T03:13:17.968Z,8.70
2023-01-07T03:15:48.532Z,9.70
2023-01-07T03:18:16.400Z,9.40
2023-01-07T03:20:45.184Z,9.00
2023-01-07T03:23:15.131Z,11.40
2023-01-07T03:25:44.712Z,9.80
2023-01-07T03:28:16.042Z,9.10
2023-01-07T03:30:44.340Z,11.10
2023-01-07T03:33:15.484Z,9.30
2023-01-07T03:35:46.245Z,9.50
2023-01-07T03:38:15.152Z,9.80
2023-01-07T03:40:43.091Z,10.50
2023-01-07T03:43:14.516Z,15.40
2023-01-07T03:45:43.124Z,19.90
2023-01-07T03:48:11.227Z,17.50
2023-01-07T03:50:39.252Z,18.50
2023-01-07T03:53:07.632Z,25.40
2023-01-07T03:55:35.599Z,24.90
2023-01-07T03:58:03.687Z,22.00
2023-01-07T04:00:31.828Z,21.90
2023-01-07T04:02:59.697Z,22.10
2023-01-07T04:05:27.624Z,21.60
2023-01-07T04:07:55.739Z,19.50
2023-01-07T04:10:23.753Z,14.50
2023-01-07T04:12:51.743Z,17.00
2023-01-07T04:15:19.759Z,16.60
2023-01-07T04:17:47.716Z,14.60
2023-01-07T04:20:15.794Z,14.00
2023-01-07T04:22:43.760Z,12.10
2023-01-07T04:25:11.606Z,11.90
2023-01-07T04:27:39.406Z,11.90
2023-01-07T04:30:07.628Z,11.70
2023-01-07T04:32:35.502Z,12.50
2023-01-07T04:35:03.462Z,11.40
2023-01-07T04:37:31.661Z,11.80
2023-01-07T04:39:59.511Z,12.10
2023-01-07T04:42:27.691Z,12.50
2023-01-07T04:44:55.608Z,21.80
2023-01-07T04:47:23.372Z,41.40
2023-01-07T04:49:51.175Z,19.00
2023-01-07T04:52:18.928Z,18.30
2023-01-07T04:54:46.701Z,14.10
2023-01-07T04:57:14.580Z,28.10
2023-01-07T04:59:42.528Z,13.00
2023-01-07T05:02:10.451Z,8.90
2023-01-07T05:04:38.450Z,7.30
2023-01-07T05:07:06.588Z,18.70
2023-01-07T05:09:34.313Z,26.20
2023-01-07T05:12:02.091Z,44.30
2023-01-07T05:14:29.945Z,34.30
2023-01-07T05:16:57.885Z,22.80
2023-01-07T05:19:25.721Z,16.20
2023-01-07T05:21:53.463Z,9.80
2023-01-07T05:24:21.376Z,17.70
2023-01-07T05:26:49.584Z,26.10
2023-01-07T05:29:17.555Z,16.70
2023-01-07T05:31:45.522Z,73.00
2023-01-07T05:34:13.599Z,17.20
2023-01-07T05:36:41.440Z,73.70
2023-01-07T05:39:09.861Z,15.50
2023-01-07T05:41:38.313Z,13.50
2023-01-07T05:44:06.082Z,11.20
2023-01-07T05:46:34.067Z,13.00
2023-01-07T05:49:01.882Z,48.30
2023-01-07T05:51:29.853Z,12.70
2023-01-07T05:53:57.679Z,13.40
2023-01-07T05:56:25.792Z,18.30
2023-01-07T05:58:53.957Z,12.60
2023-01-07T06:01:21.913Z,28.30
2023-01-07T06:03:50.101Z,29.30
2023-01-07T06:06:18.117Z,32.40
2023-01-07T06:08:45.915Z,26.60
2023-01-07T06:11:13.888Z,24.80
2023-01-07T06:13:41.627Z,26.10
2023-01-07T06:16:10.357Z,24.10
2023-01-07T06:18:38.147Z,25.70
2023-01-07T06:21:06.089Z,28.60
2023-01-07T06:23:34.208Z,21.40
2023-01-07T06:26:02.175Z,19.50
2023-01-07T06:28:30.037Z,28.80
2023-01-07T06:30:58.319Z,26.10
2023-01-07T06:33:27.408Z,24.80
2023-01-07T06:35:55.319Z,18.60
2023-01-07T06:38:23.390Z,33.80
2023-01-07T06:40:51.152Z,24.80
2023-01-07T06:43:19.157Z,21.70
2023-01-07T06:45:47.009Z,18.80
2023-01-07T06:48:15.021Z,22.60
2023-01-07T06:50:44.661Z,20.30
2023-01-07T06:53:13.118Z,18.90
2023-01-07T06:55:41.361Z,12.20
2023-01-07T06:58:09.331Z,12.50
2023-01-07T07:00:37.499Z,11.60
2023-01-07T07:03:05.413Z,12.60
2023-01-07T07:05:34.353Z,14.30
2023-01-07T07:08:02.218Z,11.70
2023-01-07T07:10:30.222Z,13.00
2023-01-07T07:12:58.461Z,12.10
2023-01-07T07:15:26.444Z,10.20
2023-01-07T07:17:54.473Z,21.70
2023-01-07T07:20:22.279Z,21.20
2023-01-07T07:22:50.233Z,12.70
2023-01-07T07:25:18.304Z,9.20
2023-01-07T07:27:46.743Z,13.00
2023-01-07T07:30:15.478Z,10.90
2023-01-07T07:32:43.544Z,12.40
2023-01-07T07:35:11.648Z,12.10
2023-01-07T07:37:39.886Z,12.90
2023-01-07T07:40:09.453Z,11.90
2023-01-07T07:43:11.885Z,13.20
2023-01-07T07:45:27.033Z,15.40
2023-01-07T07:47:55.513Z,15.00
2023-01-07T07:50:23.674Z,13.90
2023-01-07T07:52:51.658Z,14.90
2023-01-07T07:55:26.277Z,15.00
2023-01-07T07:57:55.034Z,19.90
2023-01-07T08:00:23.846Z,16.40
2023-01-07T08:02:52.657Z,16.50
2023-01-07T08:05:21.022Z,16.10
2023-01-07T08:07:49.091Z,14.50
2023-01-07T08:10:17.267Z,12.40
2023-01-07T08:12:45.148Z,17.10
2023-01-07T08:15:13.040Z,14.80
2023-01-07T08:17:40.877Z,15.80
2023-01-07T08:20:09.556Z,15.10
2023-01-07T08:22:37.857Z,14.10
2023-01-07T08:25:06.615Z,19.40
2023-01-07T08:27:34.666Z,14.90
2023-01-07T08:30:02.539Z,13.90
2023-01-07T08:32:30.547Z,15.70
2023-01-07T08:34:58.467Z,14.80
2023-01-07T08:37:29.212Z,14.10
2023-01-07T08:39:57.445Z,14.80
2023-01-07T08:42:26.176Z,15.60
2023-01-07T08:44:53.957Z,14.50
2023-01-07T08:47:21.864Z,15.40
2023-01-07T08:49:49.799Z,14.00
2023-01-07T08:52:17.759Z,14.60
2023-01-07T08:54:47.952Z,17.40
2023-01-07T08:57:16.917Z,15.20
2023-01-07T08:59:45.019Z,16.40
2023-01-07T09:02:14.405Z,18.10
2023-01-07T09:04:43.139Z,18.50
2023-01-07T09:07:11.701Z,19.70
2023-01-07T09:09:39.662Z,18.80
2023-01-07T09:12:11.213Z,19.50
2023-01-07T09:14:39.349Z,20.60
2023-01-07T09:17:07.561Z,22.30
2023-01-07T09:19:35.838Z,16.40
2023-01-07T09:22:03.905Z,18.70
2023-01-07T09:24:31.683Z,16.90
2023-01-07T09:26:59.741Z,19.10
2023-01-07T09:29:28.014Z,18.40
2023-01-07T09:31:55.956Z,16.40
2023-01-07T09:34:25.896Z,15.50
2023-01-07T09:36:53.854Z,17.70
2023-01-07T09:39:21.789Z,15.30
2023-01-07T09:42:02.408Z,18.60
2023-01-07T09:44:30.673Z,18.40
2023-01-07T09:46:58.846Z,18.40
2023-01-07T09:49:29.810Z,21.30
2023-01-07T09:52:01.949Z,24.30
2023-01-07T09:54:32.743Z,21.40
2023-01-07T09:57:00.857Z,21.30
2023-01-07T09:59:28.983Z,25.30
2023-01-07T10:02:16.217Z,18.30
2023-01-07T10:07:12.088Z,20.80
2023-01-07T10:09:58.535Z,18.30
2023-01-07T10:12:33.414Z,17.50
2023-01-07T10:15:01.554Z,15.60
2023-01-07T10:18:10.514Z,16.20
2023-01-07T10:20:45.745Z,16.80
2023-01-07T10:23:15.957Z,15.50
2023-01-07T10:25:48.303Z,15.60
2023-01-07T10:28:24.955Z,15.20
2023-01-07T10:30:53.121Z,14.50
2023-01-07T10:33:26.667Z,13.90
2023-01-07T10:36:14.731Z,15.50
2023-01-07T10:38:44.640Z,16.60
2023-01-07T10:41:31.435Z,15.80
2023-01-07T10:44:11.188Z,16.20
2023-01-07T10:46:54.356Z,16.40
2023-01-07T10:49:22.043Z,17.30
2023-01-07T10:51:50.050Z,16.90
2023-01-07T10:54:27.339Z,14.90
2023-01-07T10:59:26.038Z,17.20
2023-01-07T11:01:58.474Z,16.30
2023-01-07T11:04:26.419Z,16.70
2023-01-07T11:07:20.946Z,17.90
2023-01-07T11:10:01.335Z,17.20
2023-01-07T11:12:35.559Z,17.30
2023-01-07T11:15:06.515Z,20.40
2023-01-07T11:18:03.605Z,19.10
2023-01-07T11:20:42.256Z,17.90
2023-01-07T11:23:30.217Z,19.90
2023-01-07T11:26:13.013Z,17.70
2023-01-07T11:28:42.922Z,18.70
2023-01-07T11:31:10.890Z,17.60
2023-01-07T11:34:02.272Z,18.60
2023-01-07T11:36:42.629Z,18.50
2023-01-07T11:39:22.120Z,17.60
2023-01-07T11:41:57.439Z,19.30
2023-01-07T11:44:25.788Z,19.40
2023-01-07T11:46:55.036Z,18.00
2023-01-07T11:49:28.035Z,16.20
2023-01-07T11:51:56.877Z,16.90
2023-01-07T11:54:32.149Z,16.00
2023-01-07T11:57:32.982Z,12.70
2023-01-07T12:00:16.497Z,13.30
2023-01-07T12:02:44.725Z,13.80
2023-01-07T12:05:22.895Z,12.70
2023-01-07T12:07:54.087Z,13.00
2023-01-07T12:10:25.084Z,11.50
2023-01-07T12:12:54.097Z,12.20
2023-01-07T12:15:26.703Z,16.80
2023-01-07T12:18:01.057Z,11.90
2023-01-07T12:20:34.806Z,10.80
2023-01-07T12:23:21.833Z,10.50
2023-01-07T12:28:27.215Z,10.60
2023-01-07T12:30:58.079Z,11.80
2023-01-07T12:33:47.467Z,9.80
2023-01-07T12:36:21.262Z,10.20
2023-01-07T12:38:51.152Z,11.30
2023-01-07T12:41:27.647Z,9.70
2023-01-07T12:43:58.369Z,10.70
2023-01-07T12:46:28.534Z,11.20
2023-01-07T12:49:05.094Z,10.60
2023-01-07T12:51:55.295Z,13.90
2023-01-07T12:54:51.362Z,13.50
2023-01-07T12:57:23.588Z,16.30
2023-01-07T13:00:03.860Z,14.90
2023-01-07T13:02:51.821Z,12.00
2023-01-07T13:05:21.759Z,13.60
2023-01-07T13:07:52.877Z,11.70
2023-01-07T13:10:28.582Z,12.30
2023-01-07T13:13:03.644Z,12.00
2023-01-07T13:15:33.972Z,11.70
2023-01-07T13:18:22.524Z,12.80
2023-01-07T13:20:50.997Z,14.90
2023-01-07T13:23:36.648Z,14.10
2023-01-07T13:26:05.065Z,13.40
2023-01-07T13:28:50.803Z,13.50
2023-01-07T13:31:21.818Z,13.80
2023-01-07T13:34:08.298Z,14.70
2023-01-07T13:36:41.597Z,13.40
2023-01-07T13:39:15.712Z,18.30
2023-01-07T13:41:58.818Z,15.50
2023-01-07T13:44:26.526Z,14.00
2023-01-07T13:46:54.803Z,14.30
2023-01-07T13:49:26.741Z,18.50
2023-01-07T13:51:55.231Z,13.40
2023-01-07T13:54:53.071Z,12.10
2023-01-07T13:57:24.105Z,12.10
2023-01-07T13:59:53.866Z,12.30
2023-01-07T14:02:25.794Z,14.70
2023-01-07T14:05:06.089Z,11.60
2023-01-07T14:07:44.307Z,12.40
2023-01-07T14:10:38.355Z,12.70
2023-01-07T14:13:25.184Z,12.80
2023-01-07T14:15:55.342Z,17.30
2023-01-07T14:18:32.920Z,16.60
2023-01-07T14:23:50.166Z,13.40
2023-01-07T14:26:27.272Z,13.70
2023-01-07T14:31:27.440Z,10.50
2023-01-07T14:33:58.448Z,10.70
2023-01-07T14:36:46.295Z,11.50
2023-01-07T14:39:31.815Z,15.50
2023-01-07T14:42:18.650Z,13.50
2023-01-07T14:44:46.590Z,13.20
2023-01-07T14:47:16.238Z,19.60
2023-01-07T14:49:56.024Z,26.60
2023-01-07T14:52:35.036Z,48.40
2023-01-07T14:55:22.082Z,37.20
2023-01-07T14:57:50.074Z,95.90
2023-01-07T15:00:27.034Z,37.90
2023-01-07T15:02:58.224Z,33.60
2023-01-07T15:05:26.548Z,29.10
2023-01-07T15:08:20.028Z,28.90
2023-01-07T15:11:09.027Z,22.90
2023-01-07T15:13:59.843Z,20.80
2023-01-07T15:16:29.614Z,23.20
2023-01-07T15:18:58.232Z,23.00
2023-01-07T15:21:26.202Z,23.30
2023-01-07T15:24:13.702Z,22.00
2023-01-07T15:27:06.022Z,23.10
2023-01-07T15:29:54.006Z,24.40
2023-01-07T15:32:28.868Z,25.40
2023-01-07T15:34:58.979Z,29.70
2023-01-07T15:37:28.795Z,33.50
2023-01-07T15:39:57.741Z,46.00
2023-01-07T15:42:27.451Z,42.20
2023-01-07T15:44:57.507Z,29.50
2023-01-07T15:47:35.063Z,20.90
2023-01-07T15:50:18.109Z,21.80
2023-01-07T15:52:51.447Z,26.50
2023-01-07T15:55:24.604Z,28.40
2023-01-07T15:57:54.911Z,26.50
2023-01-07T16:00:24.343Z,28.40
2023-01-07T16:02:53.889Z,29.60
2023-01-07T16:05:22.057Z,30.00
2023-01-07T16:07:53.811Z,31.90
2023-01-07T16:10:25.400Z,32.90
2023-01-07T16:12:55.558Z,35.40
2023-01-07T16:15:29.525Z,35.20
2023-01-07T16:18:00.960Z,36.70
2023-01-07T16:20:31.502Z,32.50
2023-01-07T16:23:09.462Z,29.10
2023-01-07T16:25:41.330Z,32.50
2023-01-07T16:28:14.677Z,33.10
2023-01-07T16:30:45.648Z,34.20
2023-01-07T16:33:18.261Z,37.70
2023-01-07T16:35:48.615Z,36.80
2023-01-07T16:38:18.622Z,39.10
2023-01-07T16:40:50.181Z,35.40
2023-01-07T16:43:30.535Z,32.60
2023-01-07T16:46:19.945Z,33.70
2023-01-07T16:48:49.089Z,34.30
2023-01-07T16:51:44.409Z,34.90
2023-01-07T16:54:25.513Z,32.90
2023-01-07T16:56:55.177Z,32.40
2023-01-07T16:59:26.497Z,33.60
2023-01-07T17:01:55.308Z,31.80
2023-01-07T17:04:28.044Z,32.60
2023-01-07T17:06:57.602Z,33.00
2023-01-07T17:09:36.429Z,32.40
2023-01-07T17:12:05.127Z,32.30
2023-01-07T17:14:37.174Z,32.50
2023-01-07T17:17:25.955Z,32.60
2023-01-07T17:20:09.470Z,34.50
2023-01-07T17:22:41.177Z,37.50
2023-01-07T17:25:31.518Z,34.20
2023-01-07T17:28:05.693Z,35.60
2023-01-07T17:30:36.153Z,35.60
2023-01-07T17:33:04.518Z,35.90
2023-01-07T17:35:32.720Z,36.90
2023-01-07T17:38:04.054Z,42.80
2023-01-07T17:40:32.223Z,42.00
2023-01-07T17:43:19.644Z,45.30
2023-01-07T17:48:16.916Z,35.10
2023-01-07T17:50:45.286Z,43.30
2023-01-07T17:53:31.416Z,40.30
2023-01-07T17:56:02.823Z,38.50
2023-01-07T17:58:32.263Z,38.00
2023-01-07T18:01:01.531Z,37.70
2023-01-07T18:03:30.121Z,39.30
2023-01-07T18:05:58.913Z,38.00
2023-01-07T18:08:26.871Z,35.80
2023-01-07T18:11:15.025Z,39.40
2023-01-07T18:13:43.592Z,37.70
2023-01-07T18:16:12.439Z,37.30
2023-01-07T18:18:40.866Z,38.80
2023-01-07T18:21:12.428Z,37.30
2023-01-07T18:23:40.897Z,36.30
2023-01-07T18:26:10.187Z,35.40
2023-01-07T18:28:38.470Z,35.40
2023-01-07T18:31:06.746Z,38.80
2023-01-07T18:33:35.386Z,36.50
2023-01-07T18:36:03.735Z,36.20
2023-01-07T18:38:31.897Z,36.20
2023-01-07T18:41:00.176Z,37.60
2023-01-07T18:43:28.839Z,38.10
2023-01-07T18:45:57.798Z,36.80
2023-01-07T18:48:27.037Z,35.30
2023-01-07T18:50:56.948Z,40.30
2023-01-07T18:53:26.746Z,36.00
2023-01-07T18:55:59.741Z,37.10
2023-01-07T18:58:30.283Z,36.70
2023-01-07T19:01:02.135Z,35.00
2023-01-07T19:03:30.362Z,36.70
2023-01-07T19:06:01.775Z,37.30
2023-01-07T19:08:30.434Z,38.00
2023-01-07T19:10:58.818Z,39.30
2023-01-07T19:13:27.616Z,36.70
2023-01-07T19:15:57.937Z,37.30
2023-01-07T19:18:27.838Z,37.30
2023-01-07T19:21:01.468Z,36.30
2023-01-07T19:23:30.030Z,34.20
2023-01-07T19:26:04.533Z,36.50
2023-01-07T19:28:33.124Z,34.80
2023-01-07T19:31:07.959Z,34.20
2023-01-07T19:33:38.079Z,34.40
2023-01-07T19:36:09.387Z,34.60
2023-01-07T19:38:41.922Z,35.20
2023-01-07T19:41:12.795Z,36.10
2023-01-07T19:43:47.903Z,41.00
2023-01-07T19:46:17.539Z,38.50
2023-01-07T19:48:51.052Z,35.40
2023-01-07T19:51:22.584Z,38.30
2023-01-07T19:53:52.351Z,36.50
2023-01-07T19:56:20.938Z,35.30
2023-01-07T19:58:53.500Z,35.00
2023-01-07T20:01:24.538Z,35.10
2023-01-07T20:03:53.941Z,36.70
2023-01-07T20:06:23.542Z,36.90
2023-01-07T20:08:55.510Z,36.50
2023-01-07T20:11:24.403Z,35.80
2023-01-07T20:13:53.082Z,33.90
2023-01-07T20:16:22.921Z,37.80
2023-01-07T20:18:52.187Z,34.70
2023-01-07T20:21:21.803Z,33.50
2023-01-07T20:23:50.913Z,35.70
2023-01-07T20:26:20.666Z,37.20
2023-01-07T20:28:49.617Z,38.20
2023-01-07T20:31:20.465Z,36.20
2023-01-07T20:33:51.104Z,37.10
2023-01-07T20:36:21.781Z,37.10
2023-01-07T20:38:52.215Z,37.40
2023-01-07T20:41:22.132Z,35.70
2023-01-07T20:43:54.983Z,33.70
2023-01-07T20:46:23.762Z,37.80
2023-01-07T20:48:52.119Z,36.20
2023-01-07T20:51:20.682Z,33.70
2023-01-07T20:53:50.927Z,34.80
2023-01-07T20:56:20.079Z,35.90
2023-01-07T20:58:48.968Z,34.10
2023-01-07T21:01:18.685Z,33.40
2023-01-07T21:03:47.401Z,36.30
2023-01-07T21:06:17.769Z,34.70
2023-01-07T21:08:47.401Z,37.70
2023-01-07T21:11:16.802Z,42.80
2023-01-07T21:13:45.279Z,40.80
2023-01-07T21:16:14.357Z,38.30
2023-01-07T21:18:43.359Z,36.90
2023-01-07T21:21:13.277Z,42.30
2023-01-07T21:23:41.780Z,36.50
2023-01-07T21:26:10.435Z,41.40
2023-01-07T21:28:38.719Z,38.90
2023-01-07T21:31:10.613Z,43.70
2023-01-07T21:33:40.595Z,40.40
2023-01-07T21:36:18.533Z,41.70
2023-01-07T21:38:47.100Z,41.90
2023-01-07T21:41:15.997Z,43.50
2023-01-07T21:43:44.387Z,42.90
2023-01-07T21:46:12.888Z,43.00
2023-01-07T21:48:41.816Z,42.90
2023-01-07T21:51:16.648Z,45.00
2023-01-07T21:53:44.751Z,41.40
2023-01-07T21:56:15.351Z,43.00
2023-01-07T21:58:46.331Z,39.80
2023-01-07T22:01:15.029Z,39.20
2023-01-07T22:03:44.730Z,44.90
2023-01-07T22:06:20.312Z,41.40
2023-01-07T22:08:48.908Z,46.70
2023-01-07T22:11:18.003Z,44.30
2023-01-07T22:13:49.563Z,40.80
2023-01-07T22:16:20.389Z,44.60
2023-01-07T22:18:50.325Z,44.20
2023-01-07T22:21:18.562Z,48.00
2023-01-07T22:23:47.493Z,44.10
2023-01-07T22:26:16.771Z,44.10
2023-01-07T22:28:49.461Z,45.50
2023-01-07T22:31:25.798Z,46.50
2023-01-07T22:33:54.403Z,46.80
2023-01-07T22:36:26.071Z,48.10
2023-01-07T22:38:56.521Z,48.50
2023-01-07T22:41:25.164Z,51.50
2023-01-07T22:43:53.281Z,43.00
2023-01-07T22:46:23.191Z,48.10
2023-01-07T22:48:52.353Z,43.40
2023-01-07T22:51:25.222Z,48.00
2023-01-07T22:53:55.605Z,49.40
2023-01-07T22:56:24.442Z,50.30
2023-01-07T22:58:52.829Z,41.70
2023-01-07T23:01:21.161Z,47.80
2023-01-07T23:03:49.858Z,42.50
2023-01-07T23:06:18.229Z,47.10
2023-01-07T23:08:46.241Z,44.30
2023-01-07T23:11:34.389Z,42.60
2023-01-07T23:14:03.116Z,44.90
2023-01-07T23:16:31.508Z,50.20
2023-01-07T23:19:00.841Z,50.80
2023-01-07T23:21:31.561Z,47.10
2023-01-07T23:23:59.514Z,43.80
2023-01-07T23:26:28.843Z,46.90
2023-01-07T23:28:56.931Z,50.10
2023-01-07T23:31:24.989Z,48.80
2023-01-07T23:33:53.051Z,49.40
2023-01-07T23:36:21.004Z,49.70
2023-01-07T23:38:49.035Z,46.10
2023-01-07T23:41:16.885Z,51.30
2023-01-07T23:43:45.348Z,47.40
2023-01-07T23:46:48.825Z,48.10
2023-01-07T23:49:16.687Z,46.40
2023-01-07T23:51:45.047Z,46.70
2023-01-07T23:54:13.281Z,49.30
2023-01-07T23:56:41.221Z,51.80
2023-01-07T23:59:10.159Z,44.40
